ジョン・F・ケネディ国際空港の過去48時間の天気

ジョン・F・ケネディ国際空港 (New York, Kennedy International Airport)

現在時刻: 5/28 08:24 EDT (5/28 12:24 UTC) 以下の時間は現地時間です。

過去48時間のMETAR気象情報
時間 風向 風速(m/s) 視程 気温(℃) 湿度(%) 気圧(hPa) 天気現象
28 07:51 東南東 2 10km以上 16.1 93 1014.2
28 06:54 3 3,200m 15 100 1014 もや
28 06:51 2 1,600m 15 100 1013.9 もや
28 06:40 2 1,600m 15 100 1014
28 05:51 2 800m 15 100 1013 もや
28 04:51 静穏 0 10km以上 15 96 1013.1
28 03:51 2 10km以上 14.4 100 1012.7
28 03:42 2 10km以上 14.4 100 1013
28 02:51 東南東 2 10km以上 15 96 1013
28 01:51 南東 2 10km以上 15 96 1013.2
28 00:51 東南東 3 10km以上 15.6 93 1013.1
27 23:51 3 10km以上 16.1 93 1013.4
27 22:51 東南東 3 10km以上 16.1 93 1013.6
27 21:51 東南東 4 10km以上 16.1 93 1013.6
27 20:51 東南東 3 10km以上 16.7 86 1012.9
27 19:51 東南東 4 10km以上 17.8 81 1012.4
27 18:51 東南東 4 10km以上 18.9 75 1012.2
27 17:51 3 10km以上 18.9 75 1012
27 16:51 6 10km以上 18.9 75 1011.8
27 15:51 6 10km以上 19.4 71 1011.7
27 14:51 南南西 4 10km以上 20.6 70 1011.5
27 13:51 南西 5 10km以上 21.1 66 1011.7
27 12:51 南西 6 10km以上 20.6 65 1011.6
27 11:51 南西 6 10km以上 20.6 68 1011.7
27 10:51 不定 2 10km以上 22.2 55 1011.6
27 09:51 北北西 2 10km以上 20.6 63 1011.9
27 08:51 北西 2 10km以上 20.6 63 1011.7
27 07:51 北西 5 10km以上 18.9 70 1011.7
27 06:51 北西 5 10km以上 17.8 75 1011.7
27 05:51 北西 3 10km以上 16.7 80 1011.2
27 04:51 西 4 10km以上 16.7 78 1010.7
27 03:51 西北西 4 10km以上 17.8 73 1010.1
27 02:51 北西 5 10km以上 17.8 70 1009.9
27 01:51 北西 6 10km以上 18.3 65 1009.7
27 00:51 西北西 5 10km以上 18.9 65 1009.6
26 23:51 北西 7 10km以上 19.4 61 1009.3
26 22:51 北西 6 10km以上 20.6 57 1008.8
26 21:51 北西 8 10km以上 21.1 55 1008.1
26 20:51 西 6 10km以上 22.2 61 1006.8
26 19:51 西 6 10km以上 22.2 59 1005.6
26 18:51 西南西 8 10km以上 22.8 59 1004.6
26 17:51 西 7 10km以上 23.9 50 1003.9
26 16:51 西北西 6 10km以上 23.9 50 1003.4
26 15:51 北西 6 10km以上 24.4 50 1003.1
26 14:51 西北西 6 10km以上 23.9 52 1002.9
26 13:51 西 9 10km以上 24.4 54 1002.3
26 12:51 西 7 10km以上 22.2 61 1002.1
26 11:51 西 5 10km以上 21.7 70 1002.3
26 10:51 西南西 5 10km以上 18.9 84 1002.1
26 09:51 西南西 6 10km以上 17.2 84 1002.3
26 08:51 西北西 4 10km以上 16.7 86 1002.1
KJFK 281151Z 11003KT 7SM OVC008 16/15 A2995 RMK AO2 SLP142 T01610150 10161 20144 53010
KJFK 281054Z 10006KT 2SM BR OVC005 15/15 A2994 RMK AO2 SFC VIS 6 T01500150
KJFK 281051Z 10004KT 1SM BR OVC005 15/15 A2994 RMK AO2 SFC VIS 6 SLP139 T01500150
KJFK 281040Z 08004KT 1SM OVC004 15/15 A2993 RMK AO2 SFC VIS 7 T01500150
KJFK 280951Z 08004KT 1/2SM BR OVC004 15/15 A2992 RMK AO2 SFC VIS 2 1/2 SLP130 T01500150
KJFK 280851Z 00000KT 8SM OVC006 15/14 A2992 RMK AO2 SLP131 T01500144 55001
KJFK 280751Z 08003KT 9SM BKN006 14/14 A2991 RMK AO2 SLP127 T01440144
KJFK 280742Z 09003KT 10SM BKN006 14/14 A2990 RMK AO2 T01440144
KJFK 280651Z 11003KT 10SM BKN075 15/14 A2992 RMK AO2 SLP130 T01500144
KJFK 280551Z 13003KT 10SM BKN075 15/14 A2992 RMK AO2 SLP132 T01500144 10178 20150 55004
KJFK 280451Z 12005KT 10SM FEW055 SCT075 16/14 A2992 RMK AO2 SLP131 T01560144 402280156
KJFK 280351Z 10005KT 10SM FEW055 BKN075 16/15 A2993 RMK AO2 SLP134 T01610150
KJFK 280251Z 12006KT 10SM FEW055 BKN075 16/15 A2993 RMK AO2 SLP136 T01610150 51012
KJFK 280151Z 11008KT 10SM BKN075 BKN250 16/15 A2993 RMK AO2 SLP136 T01610150
KJFK 280051Z 11006KT 10SM FEW040 SCT075 BKN250 17/14 A2991 RMK AO2 SLP129 T01670144
KJFK 272351Z 11008KT 10SM FEW045 SCT080 BKN240 18/14 A2990 RMK AO2 SLP124 T01780144 10222 20178 52007
KJFK 272251Z 12007KT 10SM FEW060 BKN075 BKN150 BKN230 19/14 A2989 RMK AO2 SLP122 T01890144
KJFK 272151Z 17006KT 10SM BKN047 OVC075 19/14 A2989 RMK AO2 SLP120 T01890144
KJFK 272051Z 19011KT 10SM BKN047 OVC070 19/14 A2988 RMK AO2 SLP118 T01890144 53001
KJFK 271951Z 19011KT 10SM BKN050 BKN060 OVC070 19/14 A2988 RMK AO2 SLP117 T01940139
KJFK 271851Z 20008KT 10SM BKN055 OVC070 21/15 A2987 RMK AO2 SLP115 T02060150
KJFK 271751Z 23010KT 10SM BKN048 OVC065 21/14 A2988 RMK AO2 SLP117 T02110144 10228 20189 51000
KJFK 271651Z 22012KT 10SM BKN047 BKN060 BKN250 21/14 A2988 RMK AO2 SLP116 T02060139
KJFK 271551Z 23011KT 10SM BKN047 BKN060 BKN250 21/14 A2988 RMK AO2 SLP117 T02060144
KJFK 271451Z VRB03KT 10SM SCT043 BKN250 22/13 A2988 RMK AO2 SLP116 T02220128 58001
KJFK 271351Z 33004KT 10SM SCT036 SCT250 21/13 A2988 RMK AO2 SLP119 T02060133
KJFK 271251Z 31004KT 10SM FEW028 SCT075 BKN250 21/13 A2988 RMK AO2 SLP117 T02060133
KJFK 271151Z 32010KT 10SM SCT026 SCT080 BKN250 19/13 A2988 RMK AO2 SLP117 T01890133 10189 20161 51010
KJFK 271051Z 31009KT 10SM FEW045 SCT080 SCT250 18/13 A2988 RMK AO2 SLP117 T01780133
KJFK 270951Z 32005KT 10SM FEW045 SCT080 17/13 A2986 RMK AO2 SLP112 T01670133
KJFK 270851Z 27007KT 10SM FEW045 17/13 A2985 RMK AO2 SLP107 T01670128 53010
KJFK 270751Z 30007KT 10SM FEW045 18/13 A2983 RMK AO2 SLP101 T01780128
KJFK 270651Z 31010G18KT 10SM FEW045 18/12 A2982 RMK AO2 SLP099 T01780122
KJFK 270551Z 31012KT 10SM FEW045 18/12 A2982 RMK AO2 SLP097 T01830117 10228 20183 51009
KJFK 270451Z 30010KT 10SM FEW042 FEW075 19/12 A2982 RMK AO2 SLP096 T01890122 402500139
KJFK 270351Z 31013G18KT 10SM FEW042 FEW055 FEW075 19/12 A2981 RMK AO2 SLP093 T01940117
KJFK 270251Z 31012KT 10SM FEW050 FEW075 21/12 A2979 RMK AO2 SLP088 T02060117 51032
KJFK 270151Z 32015KT 10SM SCT050 SCT075 21/12 A2977 RMK AO2 SLP081 T02110117
KJFK 270051Z 28012G18KT 10SM SCT049 SCT055 BKN075 22/14 A2973 RMK AO2 CIG 049 W SLP068 T02220144
KJFK 262351Z 27011G17KT 10SM SCT055 SCT100 SCT250 22/14 A2970 RMK AO2 SLP056 T02220139 10250 20222 53021
KJFK 262251Z 25015KT 10SM FEW055 SCT100 SCT250 23/14 A2967 RMK AO2 SLP046 T02280144
KJFK 262151Z 27013G21KT 10SM FEW055 BKN100 BKN250 24/13 A2965 RMK AO2 SLP039 T02390128
KJFK 262051Z 29012G24KT 10SM FEW050 FEW075 BKN100 BKN250 24/13 A2963 RMK AO2 SLP034 T02390128 51011
KJFK 261951Z 31011KT 10SM FEW050 BKN095 BKN250 24/13 A2962 RMK AO2 SLP031 T02440133
KJFK 261851Z 29012G18KT 10SM SCT047 BKN075 24/13 A2962 RMK AO2 SLP029 T02390133
KJFK 261751Z 27017G22KT 10SM SCT041 BKN070 24/14 A2960 RMK AO2 SLP023 SCT V BKN T02440144 10244 20150 53002
KJFK 261651Z 27014KT 10SM FEW033 BKN047 BKN080 22/14 A2959 RMK AO2 SLP021 T02220144
KJFK 261551Z 27010KT 10SM SCT026 BKN044 BKN080 22/16 A2960 RMK AO2 SLP023 T02170161
KJFK 261451Z 25010KT 10SM BKN024 BKN080 19/16 A2960 RMK AO2 SLP021 T01890161 50006
KJFK 261351Z 25011KT 10SM FEW012 BKN019 BKN170 BKN260 17/14 A2960 RMK AO2 SLP023 T01720144
KJFK 261251Z 29007KT 10SM SCT012 BKN024 BKN170 17/14 A2959 RMK AO2 SLP021 T01670144